sensor_id;sensor_type;location;lat;lon;timestamp;temperature;humidity
51476;DHT22;37554;50.362;7.568;2024-02-28T00:00:00;16.00;51.00
51476;DHT22;37554;50.362;7.568;2024-02-28T00:02:26;16.00;50.90
51476;DHT22;37554;50.362;7.568;2024-02-28T00:04:53;16.00;51.00
51476;DHT22;37554;50.362;7.568;2024-02-28T00:07:18;16.00;50.90
51476;DHT22;37554;50.362;7.568;2024-02-28T00:09:44;16.00;50.90
51476;DHT22;37554;50.362;7.568;2024-02-28T00:12:10;16.00;51.00
51476;DHT22;37554;50.362;7.568;2024-02-28T00:14:35;16.00;51.00
51476;DHT22;37554;50.362;7.568;2024-02-28T00:17:01;16.00;51.10
51476;DHT22;37554;50.362;7.568;2024-02-28T00:19:26;16.00;51.10
51476;DHT22;37554;50.362;7.568;2024-02-28T00:21:52;16.00;51.10
51476;DHT22;37554;50.362;7.568;2024-02-28T00:24:18;16.00;51.10
51476;DHT22;37554;50.362;7.568;2024-02-28T00:26:43;16.00;51.80
51476;DHT22;37554;50.362;7.568;2024-02-28T00:29:09;16.00;51.10
51476;DHT22;37554;50.362;7.568;2024-02-28T00:31:35;15.90;51.10
51476;DHT22;37554;50.362;7.568;2024-02-28T00:34:01;15.90;51.10
51476;DHT22;37554;50.362;7.568;2024-02-28T00:36:27;15.90;51.10
51476;DHT22;37554;50.362;7.568;2024-02-28T00:38:52;15.90;51.20
51476;DHT22;37554;50.362;7.568;2024-02-28T00:41:18;15.90;51.20
51476;DHT22;37554;50.362;7.568;2024-02-28T00:43:44;15.90;51.20
51476;DHT22;37554;50.362;7.568;2024-02-28T00:46:09;15.90;51.20
51476;DHT22;37554;50.362;7.568;2024-02-28T00:48:38;15.90;51.30
51476;DHT22;37554;50.362;7.568;2024-02-28T00:51:04;15.80;51.30
51476;DHT22;37554;50.362;7.568;2024-02-28T00:53:30;15.80;51.30
51476;DHT22;37554;50.362;7.568;2024-02-28T00:55:55;15.80;51.30
51476;DHT22;37554;50.362;7.568;2024-02-28T00:58:21;15.80;51.30
51476;DHT22;37554;50.362;7.568;2024-02-28T01:00:48;15.80;51.30
51476;DHT22;37554;50.362;7.568;2024-02-28T01:03:14;15.80;51.30
51476;DHT22;37554;50.362;7.568;2024-02-28T01:05:41;15.80;51.40
51476;DHT22;37554;50.362;7.568;2024-02-28T01:08:07;15.80;51.40
51476;DHT22;37554;50.362;7.568;2024-02-28T01:10:33;15.80;51.40
51476;DHT22;37554;50.362;7.568;2024-02-28T01:12:59;15.80;51.40
51476;DHT22;37554;50.362;7.568;2024-02-28T01:15:25;15.70;51.40
51476;DHT22;37554;50.362;7.568;2024-02-28T01:17:50;15.70;51.40
51476;DHT22;37554;50.362;7.568;2024-02-28T01:20:16;15.70;51.40
51476;DHT22;37554;50.362;7.568;2024-02-28T01:22:42;15.70;51.40
51476;DHT22;37554;50.362;7.568;2024-02-28T01:25:08;15.70;51.50
51476;DHT22;37554;50.362;7.568;2024-02-28T01:27:34;15.70;51.50
51476;DHT22;37554;50.362;7.568;2024-02-28T01:30:00;15.70;51.50
51476;DHT22;37554;50.362;7.568;2024-02-28T01:32:26;15.70;51.50
51476;DHT22;37554;50.362;7.568;2024-02-28T01:34:51;15.70;51.50
51476;DHT22;37554;50.362;7.568;2024-02-28T01:37:17;15.70;51.50
51476;DHT22;37554;50.362;7.568;2024-02-28T01:39:43;15.60;51.50
51476;DHT22;37554;50.362;7.568;2024-02-28T01:42:08;15.60;51.50
51476;DHT22;37554;50.362;7.568;2024-02-28T01:44:41;15.60;51.50
51476;DHT22;37554;50.362;7.568;2024-02-28T01:47:08;15.60;51.50
51476;DHT22;37554;50.362;7.568;2024-02-28T01:49:34;15.60;51.50
51476;DHT22;37554;50.362;7.568;2024-02-28T01:52:00;15.60;51.50
51476;DHT22;37554;50.362;7.568;2024-02-28T01:54:27;15.60;51.60
51476;DHT22;37554;50.362;7.568;2024-02-28T01:56:53;15.60;51.70
51476;DHT22;37554;50.362;7.568;2024-02-28T01:59:19;15.50;51.60
51476;DHT22;37554;50.362;7.568;2024-02-28T02:01:45;15.50;51.70
51476;DHT22;37554;50.362;7.568;2024-02-28T02:04:11;15.50;51.70
51476;DHT22;37554;50.362;7.568;2024-02-28T02:06:38;15.50;51.70
51476;DHT22;37554;50.362;7.568;2024-02-28T02:09:07;15.50;51.70
51476;DHT22;37554;50.362;7.568;2024-02-28T02:11:32;15.50;51.70
51476;DHT22;37554;50.362;7.568;2024-02-28T02:13:59;15.50;51.70
51476;DHT22;37554;50.362;7.568;2024-02-28T02:16:24;15.50;51.80
51476;DHT22;37554;50.362;7.568;2024-02-28T02:18:53;15.50;51.70
51476;DHT22;37554;50.362;7.568;2024-02-28T02:21:20;15.40;51.70
51476;DHT22;37554;50.362;7.568;2024-02-28T02:23:48;15.40;51.70
51476;DHT22;37554;50.362;7.568;2024-02-28T02:26:13;15.40;51.70
51476;DHT22;37554;50.362;7.568;2024-02-28T02:28:39;15.40;51.80
51476;DHT22;37554;50.362;7.568;2024-02-28T02:31:04;15.40;51.80
51476;DHT22;37554;50.362;7.568;2024-02-28T02:33:30;15.40;51.90
51476;DHT22;37554;50.362;7.568;2024-02-28T02:35:55;15.30;51.80
51476;DHT22;37554;50.362;7.568;2024-02-28T02:38:21;15.40;51.90
51476;DHT22;37554;50.362;7.568;2024-02-28T02:40:51;15.30;51.90
51476;DHT22;37554;50.362;7.568;2024-02-28T02:43:16;15.30;51.90
51476;DHT22;37554;50.362;7.568;2024-02-28T02:45:42;15.30;51.90
51476;DHT22;37554;50.362;7.568;2024-02-28T02:48:09;15.30;52.00
51476;DHT22;37554;50.362;7.568;2024-02-28T02:50:34;15.30;52.00
51476;DHT22;37554;50.362;7.568;2024-02-28T02:53:00;15.30;52.10
51476;DHT22;37554;50.362;7.568;2024-02-28T02:55:25;15.30;52.00
51476;DHT22;37554;50.362;7.568;2024-02-28T02:57:51;15.30;52.00
51476;DHT22;37554;50.362;7.568;2024-02-28T03:00:17;15.20;52.00
51476;DHT22;37554;50.362;7.568;2024-02-28T03:02:42;15.20;52.00
51476;DHT22;37554;50.362;7.568;2024-02-28T03:05:08;15.20;52.00
51476;DHT22;37554;50.362;7.568;2024-02-28T03:07:34;15.20;52.00
51476;DHT22;37554;50.362;7.568;2024-02-28T03:10:00;15.20;52.10
51476;DHT22;37554;50.362;7.568;2024-02-28T03:12:25;15.20;52.10
51476;DHT22;37554;50.362;7.568;2024-02-28T03:14:51;15.20;52.10
51476;DHT22;37554;50.362;7.568;2024-02-28T03:17:16;15.20;52.10
51476;DHT22;37554;50.362;7.568;2024-02-28T03:19:42;15.20;52.20
51476;DHT22;37554;50.362;7.568;2024-02-28T03:22:08;15.10;52.20
51476;DHT22;37554;50.362;7.568;2024-02-28T03:24:33;15.20;52.20
51476;DHT22;37554;50.362;7.568;2024-02-28T03:27:02;15.10;52.20
51476;DHT22;37554;50.362;7.568;2024-02-28T03:29:28;15.10;52.20
51476;DHT22;37554;50.362;7.568;2024-02-28T03:31:54;15.10;52.20
51476;DHT22;37554;50.362;7.568;2024-02-28T03:34:20;15.10;52.30
51476;DHT22;37554;50.362;7.568;2024-02-28T03:36:45;15.10;52.30
51476;DHT22;37554;50.362;7.568;2024-02-28T03:39:11;15.10;52.30
51476;DHT22;37554;50.362;7.568;2024-02-28T03:41:37;15.10;52.30
51476;DHT22;37554;50.362;7.568;2024-02-28T03:44:03;15.10;52.30
51476;DHT22;37554;50.362;7.568;2024-02-28T03:46:29;15.10;52.30
51476;DHT22;37554;50.362;7.568;2024-02-28T03:48:55;15.10;52.30
51476;DHT22;37554;50.362;7.568;2024-02-28T03:51:20;15.00;52.30
51476;DHT22;37554;50.362;7.568;2024-02-28T03:53:46;15.00;52.30
51476;DHT22;37554;50.362;7.568;2024-02-28T03:56:12;15.00;52.30
51476;DHT22;37554;50.362;7.568;2024-02-28T03:58:37;15.00;52.40
51476;DHT22;37554;50.362;7.568;2024-02-28T04:01:03;14.90;52.40
51476;DHT22;37554;50.362;7.568;2024-02-28T04:03:29;15.00;52.40
51476;DHT22;37554;50.362;7.568;2024-02-28T04:05:54;15.00;52.40
51476;DHT22;37554;50.362;7.568;2024-02-28T04:08:20;14.90;52.40
51476;DHT22;37554;50.362;7.568;2024-02-28T04:10:45;14.90;52.40
51476;DHT22;37554;50.362;7.568;2024-02-28T04:13:11;14.90;52.40
51476;DHT22;37554;50.362;7.568;2024-02-28T04:15:37;14.90;52.40
51476;DHT22;37554;50.362;7.568;2024-02-28T04:18:04;14.90;52.40
51476;DHT22;37554;50.362;7.568;2024-02-28T04:20:29;14.90;52.50
51476;DHT22;37554;50.362;7.568;2024-02-28T04:22:55;14.90;52.50
51476;DHT22;37554;50.362;7.568;2024-02-28T04:25:20;14.90;52.60
51476;DHT22;37554;50.362;7.568;2024-02-28T04:27:46;14.90;52.60
51476;DHT22;37554;50.362;7.568;2024-02-28T04:30:12;14.90;52.50
51476;DHT22;37554;50.362;7.568;2024-02-28T04:32:38;14.90;52.60
51476;DHT22;37554;50.362;7.568;2024-02-28T04:35:04;14.90;52.60
51476;DHT22;37554;50.362;7.568;2024-02-28T04:37:29;14.80;52.50
51476;DHT22;37554;50.362;7.568;2024-02-28T04:39:55;14.80;52.60
51476;DHT22;37554;50.362;7.568;2024-02-28T04:42:21;14.80;52.70
51476;DHT22;37554;50.362;7.568;2024-02-28T04:44:46;14.80;52.60
51476;DHT22;37554;50.362;7.568;2024-02-28T04:47:12;14.80;52.60
51476;DHT22;37554;50.362;7.568;2024-02-28T04:49:38;14.80;52.60
51476;DHT22;37554;50.362;7.568;2024-02-28T04:52:06;14.80;52.70
51476;DHT22;37554;50.362;7.568;2024-02-28T04:54:32;14.80;52.70
51476;DHT22;37554;50.362;7.568;2024-02-28T04:56:58;14.70;52.60
51476;DHT22;37554;50.362;7.568;2024-02-28T04:59:23;14.70;52.70
51476;DHT22;37554;50.362;7.568;2024-02-28T05:01:49;14.70;52.70
51476;DHT22;37554;50.362;7.568;2024-02-28T05:04:14;14.70;52.70
51476;DHT22;37554;50.362;7.568;2024-02-28T05:06:40;14.70;52.70
51476;DHT22;37554;50.362;7.568;2024-02-28T05:09:06;14.70;52.70
51476;DHT22;37554;50.362;7.568;2024-02-28T05:11:31;14.70;52.70
51476;DHT22;37554;50.362;7.568;2024-02-28T05:13:57;14.70;52.70
51476;DHT22;37554;50.362;7.568;2024-02-28T05:16:23;14.70;53.40
51476;DHT22;37554;50.362;7.568;2024-02-28T05:18:48;14.70;52.70
51476;DHT22;37554;50.362;7.568;2024-02-28T05:21:14;14.60;52.70
51476;DHT22;37554;50.362;7.568;2024-02-28T05:23:40;14.60;52.80
51476;DHT22;37554;50.362;7.568;2024-02-28T05:26:06;14.60;52.80
51476;DHT22;37554;50.362;7.568;2024-02-28T05:28:35;14.60;52.80
51476;DHT22;37554;50.362;7.568;2024-02-28T05:31:21;14.60;52.80
51476;DHT22;37554;50.362;7.568;2024-02-28T05:33:47;14.60;52.80
51476;DHT22;37554;50.362;7.568;2024-02-28T05:36:12;14.60;52.80
51476;DHT22;37554;50.362;7.568;2024-02-28T05:38:38;14.60;52.80
51476;DHT22;37554;50.362;7.568;2024-02-28T05:41:03;14.60;52.80
51476;DHT22;37554;50.362;7.568;2024-02-28T05:43:29;14.50;52.80
51476;DHT22;37554;50.362;7.568;2024-02-28T05:45:54;14.50;52.30
51476;DHT22;37554;50.362;7.568;2024-02-28T05:48:20;14.10;51.70
51476;DHT22;37554;50.362;7.568;2024-02-28T05:50:46;13.60;52.20
51476;DHT22;37554;50.362;7.568;2024-02-28T05:53:11;13.20;52.90
51476;DHT22;37554;50.362;7.568;2024-02-28T05:55:37;13.00;53.60
51476;DHT22;37554;50.362;7.568;2024-02-28T05:58:03;12.80;54.10
51476;DHT22;37554;50.362;7.568;2024-02-28T06:00:28;13.10;54.40
51476;DHT22;37554;50.362;7.568;2024-02-28T06:02:54;13.50;54.10
51476;DHT22;37554;50.362;7.568;2024-02-28T06:05:20;13.70;53.60
51476;DHT22;37554;50.362;7.568;2024-02-28T06:07:45;13.90;53.20
51476;DHT22;37554;50.362;7.568;2024-02-28T06:10:11;14.10;53.00
51476;DHT22;37554;50.362;7.568;2024-02-28T06:12:37;14.30;52.80
51476;DHT22;37554;50.362;7.568;2024-02-28T06:15:04;14.40;52.70
51476;DHT22;37554;50.362;7.568;2024-02-28T06:17:30;14.40;52.50
51476;DHT22;37554;50.362;7.568;2024-02-28T06:19:56;14.50;52.60
51476;DHT22;37554;50.362;7.568;2024-02-28T06:22:21;14.50;52.50
51476;DHT22;37554;50.362;7.568;2024-02-28T06:24:47;14.60;52.60
51476;DHT22;37554;50.362;7.568;2024-02-28T06:27:13;14.60;52.60
51476;DHT22;37554;50.362;7.568;2024-02-28T06:29:39;14.60;52.50
51476;DHT22;37554;50.362;7.568;2024-02-28T06:32:05;14.60;52.50
51476;DHT22;37554;50.362;7.568;2024-02-28T06:34:31;14.60;52.50
51476;DHT22;37554;50.362;7.568;2024-02-28T06:36:57;14.60;52.40
51476;DHT22;37554;50.362;7.568;2024-02-28T06:39:57;14.70;52.50
51476;DHT22;37554;50.362;7.568;2024-02-28T06:42:23;14.70;52.50
51476;DHT22;37554;50.362;7.568;2024-02-28T06:44:48;14.70;52.50
51476;DHT22;37554;50.362;7.568;2024-02-28T06:47:14;14.70;52.50
51476;DHT22;37554;50.362;7.568;2024-02-28T06:49:39;14.70;52.50
51476;DHT22;37554;50.362;7.568;2024-02-28T06:52:05;14.60;52.50
51476;DHT22;37554;50.362;7.568;2024-02-28T06:54:31;14.60;52.50
51476;DHT22;37554;50.362;7.568;2024-02-28T06:56:57;14.60;52.50
51476;DHT22;37554;50.362;7.568;2024-02-28T06:59:23;14.60;52.40
51476;DHT22;37554;50.362;7.568;2024-02-28T07:01:48;14.60;52.50
51476;DHT22;37554;50.362;7.568;2024-02-28T07:04:14;14.60;52.50
51476;DHT22;37554;50.362;7.568;2024-02-28T07:06:39;14.60;52.50
51476;DHT22;37554;50.362;7.568;2024-02-28T07:09:08;14.60;52.50
51476;DHT22;37554;50.362;7.568;2024-02-28T07:11:34;14.60;52.50
51476;DHT22;37554;50.362;7.568;2024-02-28T07:14:00;14.60;52.50
51476;DHT22;37554;50.362;7.568;2024-02-28T07:16:28;14.60;52.50
51476;DHT22;37554;50.362;7.568;2024-02-28T07:18:54;14.60;52.50
51476;DHT22;37554;50.362;7.568;2024-02-28T07:21:20;14.60;53.20
51476;DHT22;37554;50.362;7.568;2024-02-28T07:23:45;14.60;52.60
51476;DHT22;37554;50.362;7.568;2024-02-28T07:26:17;14.60;52.60
51476;DHT22;37554;50.362;7.568;2024-02-28T07:28:43;14.60;52.60
51476;DHT22;37554;50.362;7.568;2024-02-28T07:31:18;14.60;52.60
51476;DHT22;37554;50.362;7.568;2024-02-28T07:33:44;14.60;52.60
51476;DHT22;37554;50.362;7.568;2024-02-28T07:36:10;14.60;52.60
51476;DHT22;37554;50.362;7.568;2024-02-28T07:38:36;14.60;52.60
51476;DHT22;37554;50.362;7.568;2024-02-28T07:41:02;14.60;52.60
51476;DHT22;37554;50.362;7.568;2024-02-28T07:43:28;14.60;52.70
51476;DHT22;37554;50.362;7.568;2024-02-28T07:45:54;14.60;52.70
51476;DHT22;37554;50.362;7.568;2024-02-28T07:48:19;14.60;52.60
51476;DHT22;37554;50.362;7.568;2024-02-28T07:50:45;14.60;52.60
51476;DHT22;37554;50.362;7.568;2024-02-28T07:53:12;14.60;52.50
51476;DHT22;37554;50.362;7.568;2024-02-28T07:55:37;14.60;52.50
51476;DHT22;37554;50.362;7.568;2024-02-28T07:58:04;14.60;52.50
51476;DHT22;37554;50.362;7.568;2024-02-28T08:00:31;14.60;52.50
51476;DHT22;37554;50.362;7.568;2024-02-28T08:02:58;14.60;52.50
51476;DHT22;37554;50.362;7.568;2024-02-28T08:05:24;14.60;52.50
51476;DHT22;37554;50.362;7.568;2024-02-28T08:07:49;14.60;52.50
51476;DHT22;37554;50.362;7.568;2024-02-28T08:10:15;14.60;52.50
51476;DHT22;37554;50.362;7.568;2024-02-28T08:12:41;14.60;52.50
51476;DHT22;37554;50.362;7.568;2024-02-28T08:15:06;14.60;52.50
51476;DHT22;37554;50.362;7.568;2024-02-28T08:17:32;14.60;52.50
51476;DHT22;37554;50.362;7.568;2024-02-28T08:19:57;14.60;52.60
51476;DHT22;37554;50.362;7.568;2024-02-28T08:22:23;14.60;51.90
51476;DHT22;37554;50.362;7.568;2024-02-28T08:24:53;14.20;50.90
51476;DHT22;37554;50.362;7.568;2024-02-28T08:27:19;13.60;51.50
51476;DHT22;37554;50.362;7.568;2024-02-28T08:29:46;13.20;51.70
51476;DHT22;37554;50.362;7.568;2024-02-28T08:32:12;12.70;52.50
51476;DHT22;37554;50.362;7.568;2024-02-28T08:34:38;12.70;53.20
51476;DHT22;37554;50.362;7.568;2024-02-28T08:37:04;13.00;53.30
51476;DHT22;37554;50.362;7.568;2024-02-28T08:39:29;13.30;52.70
51476;DHT22;37554;50.362;7.568;2024-02-28T08:41:55;13.60;52.40
51476;DHT22;37554;50.362;7.568;2024-02-28T08:44:21;13.80;51.90
51476;DHT22;37554;50.362;7.568;2024-02-28T08:46:47;14.20;51.90
51476;DHT22;37554;50.362;7.568;2024-02-28T08:49:14;14.40;51.70
51476;DHT22;37554;50.362;7.568;2024-02-28T08:51:39;14.50;51.50
51476;DHT22;37554;50.362;7.568;2024-02-28T08:54:05;14.60;51.70
51476;DHT22;37554;50.362;7.568;2024-02-28T08:56:31;14.60;51.60
51476;DHT22;37554;50.362;7.568;2024-02-28T08:58:56;14.70;51.60
51476;DHT22;37554;50.362;7.568;2024-02-28T09:01:22;14.70;51.50
51476;DHT22;37554;50.362;7.568;2024-02-28T09:03:48;14.80;51.40
51476;DHT22;37554;50.362;7.568;2024-02-28T09:06:14;14.80;51.30
51476;DHT22;37554;50.362;7.568;2024-02-28T09:08:39;14.80;51.20
51476;DHT22;37554;50.362;7.568;2024-02-28T09:11:05;14.90;51.20
51476;DHT22;37554;50.362;7.568;2024-02-28T09:13:31;14.90;51.30
51476;DHT22;37554;50.362;7.568;2024-02-28T09:15:57;14.90;51.20
51476;DHT22;37554;50.362;7.568;2024-02-28T09:18:23;15.00;51.20
51476;DHT22;37554;50.362;7.568;2024-02-28T09:20:48;15.00;51.20
51476;DHT22;37554;50.362;7.568;2024-02-28T09:23:14;15.00;51.20
51476;DHT22;37554;50.362;7.568;2024-02-28T09:25:40;15.00;51.20
51476;DHT22;37554;50.362;7.568;2024-02-28T09:28:06;15.00;51.20
51476;DHT22;37554;50.362;7.568;2024-02-28T09:30:31;15.00;51.20
51476;DHT22;37554;50.362;7.568;2024-02-28T09:32:57;15.00;51.20
51476;DHT22;37554;50.362;7.568;2024-02-28T09:35:22;15.10;51.30
51476;DHT22;37554;50.362;7.568;2024-02-28T09:37:49;15.10;51.20
51476;DHT22;37554;50.362;7.568;2024-02-28T09:40:15;15.10;51.20
51476;DHT22;37554;50.362;7.568;2024-02-28T09:42:41;15.20;51.30
51476;DHT22;37554;50.362;7.568;2024-02-28T09:45:10;15.20;51.20
51476;DHT22;37554;50.362;7.568;2024-02-28T09:47:37;15.20;51.20
51476;DHT22;37554;50.362;7.568;2024-02-28T09:50:04;15.30;51.30
51476;DHT22;37554;50.362;7.568;2024-02-28T09:52:29;15.30;51.20
51476;DHT22;37554;50.362;7.568;2024-02-28T09:54:55;15.30;51.30
51476;DHT22;37554;50.362;7.568;2024-02-28T09:57:21;15.30;51.20
51476;DHT22;37554;50.362;7.568;2024-02-28T09:59:55;15.40;51.50
51476;DHT22;37554;50.362;7.568;2024-02-28T10:02:21;15.50;51.50
51476;DHT22;37554;50.362;7.568;2024-02-28T10:04:47;15.50;51.70
51476;DHT22;37554;50.362;7.568;2024-02-28T10:07:13;15.60;51.80
51476;DHT22;37554;50.362;7.568;2024-02-28T10:09:43;15.60;51.90
51476;DHT22;37554;50.362;7.568;2024-02-28T10:12:09;15.60;51.80
51476;DHT22;37554;50.362;7.568;2024-02-28T10:14:35;15.60;51.80
51476;DHT22;37554;50.362;7.568;2024-02-28T10:17:00;15.60;51.80
51476;DHT22;37554;50.362;7.568;2024-02-28T10:19:26;15.70;51.70
51476;DHT22;37554;50.362;7.568;2024-02-28T10:21:52;15.70;51.70
51476;DHT22;37554;50.362;7.568;2024-02-28T10:24:18;15.70;51.50
51476;DHT22;37554;50.362;7.568;2024-02-28T10:26:47;15.80;51.60
51476;DHT22;37554;50.362;7.568;2024-02-28T10:29:25;15.80;51.40
51476;DHT22;37554;50.362;7.568;2024-02-28T10:31:57;15.90;51.30
51476;DHT22;37554;50.362;7.568;2024-02-28T10:34:23;15.90;51.20
51476;DHT22;37554;50.362;7.568;2024-02-28T10:36:49;16.00;51.80
51476;DHT22;37554;50.362;7.568;2024-02-28T10:39:15;16.10;51.00
51476;DHT22;37554;50.362;7.568;2024-02-28T10:41:41;16.10;50.90
51476;DHT22;37554;50.362;7.568;2024-02-28T10:44:12;16.20;50.70
51476;DHT22;37554;50.362;7.568;2024-02-28T10:46:39;16.30;50.50
51476;DHT22;37554;50.362;7.568;2024-02-28T10:49:09;16.40;50.40
51476;DHT22;37554;50.362;7.568;2024-02-28T10:51:35;16.40;50.40
51476;DHT22;37554;50.362;7.568;2024-02-28T10:54:10;16.40;50.30
51476;DHT22;37554;50.362;7.568;2024-02-28T10:56:37;16.50;50.40
51476;DHT22;37554;50.362;7.568;2024-02-28T10:59:06;16.50;50.20
51476;DHT22;37554;50.362;7.568;2024-02-28T11:01:36;16.60;50.20
51476;DHT22;37554;50.362;7.568;2024-02-28T11:04:03;16.60;50.70
51476;DHT22;37554;50.362;7.568;2024-02-28T11:06:29;16.70;50.00
51476;DHT22;37554;50.362;7.568;2024-02-28T11:08:59;16.90;49.90
51476;DHT22;37554;50.362;7.568;2024-02-28T11:11:24;17.10;49.60
51476;DHT22;37554;50.362;7.568;2024-02-28T11:13:56;17.30;49.30
51476;DHT22;37554;50.362;7.568;2024-02-28T11:16:32;17.50;49.00
51476;DHT22;37554;50.362;7.568;2024-02-28T11:18:59;17.70;48.80
51476;DHT22;37554;50.362;7.568;2024-02-28T11:21:26;17.90;48.50
51476;DHT22;37554;50.362;7.568;2024-02-28T11:23:56;18.10;48.20
51476;DHT22;37554;50.362;7.568;2024-02-28T11:26:22;18.30;47.90
51476;DHT22;37554;50.362;7.568;2024-02-28T11:28:48;18.40;47.70
51476;DHT22;37554;50.362;7.568;2024-02-28T11:31:14;18.50;47.60
51476;DHT22;37554;50.362;7.568;2024-02-28T11:33:40;18.70;47.30
51476;DHT22;37554;50.362;7.568;2024-02-28T11:36:06;18.90;47.00
51476;DHT22;37554;50.362;7.568;2024-02-28T11:38:35;19.20;46.70
51476;DHT22;37554;50.362;7.568;2024-02-28T11:41:03;20.00;45.80
51476;DHT22;37554;50.362;7.568;2024-02-28T11:43:31;20.90;44.50
51476;DHT22;37554;50.362;7.568;2024-02-28T11:45:58;21.50;43.60
51476;DHT22;37554;50.362;7.568;2024-02-28T11:48:25;22.30;42.60
51476;DHT22;37554;50.362;7.568;2024-02-28T11:50:51;22.80;41.80
51476;DHT22;37554;50.362;7.568;2024-02-28T11:53:18;23.30;41.10
51476;DHT22;37554;50.362;7.568;2024-02-28T11:55:45;23.90;40.40
51476;DHT22;37554;50.362;7.568;2024-02-28T11:58:10;24.20;39.90
51476;DHT22;37554;50.362;7.568;2024-02-28T12:00:49;24.60;39.60
51476;DHT22;37554;50.362;7.568;2024-02-28T12:03:23;24.90;39.10
51476;DHT22;37554;50.362;7.568;2024-02-28T12:05:49;24.90;39.40
51476;DHT22;37554;50.362;7.568;2024-02-28T12:08:19;24.90;39.80
51476;DHT22;37554;50.362;7.568;2024-02-28T12:10:46;24.90;39.80
51476;DHT22;37554;50.362;7.568;2024-02-28T12:13:18;24.90;39.90
51476;DHT22;37554;50.362;7.568;2024-02-28T12:15:45;25.00;39.80
51476;DHT22;37554;50.362;7.568;2024-02-28T12:18:11;25.00;39.90
51476;DHT22;37554;50.362;7.568;2024-02-28T12:20:38;25.00;40.00
51476;DHT22;37554;50.362;7.568;2024-02-28T12:23:06;25.00;40.00
51476;DHT22;37554;50.362;7.568;2024-02-28T12:25:33;24.90;40.00
51476;DHT22;37554;50.362;7.568;2024-02-28T12:28:00;24.90;40.10
51476;DHT22;37554;50.362;7.568;2024-02-28T12:30:26;24.90;40.30
51476;DHT22;37554;50.362;7.568;2024-02-28T12:32:52;24.80;40.30
51476;DHT22;37554;50.362;7.568;2024-02-28T12:35:17;24.60;40.10
51476;DHT22;37554;50.362;7.568;2024-02-28T12:37:43;24.40;39.90
51476;DHT22;37554;50.362;7.568;2024-02-28T12:40:08;24.30;39.70
51476;DHT22;37554;50.362;7.568;2024-02-28T12:42:34;24.20;39.50
51476;DHT22;37554;50.362;7.568;2024-02-28T12:45:00;24.10;39.30
51476;DHT22;37554;50.362;7.568;2024-02-28T12:47:25;24.10;39.00
51476;DHT22;37554;50.362;7.568;2024-02-28T12:49:51;24.00;38.80
51476;DHT22;37554;50.362;7.568;2024-02-28T12:52:17;24.00;38.70
51476;DHT22;37554;50.362;7.568;2024-02-28T12:54:43;24.00;38.80
51476;DHT22;37554;50.362;7.568;2024-02-28T12:57:09;23.90;38.70
51476;DHT22;37554;50.362;7.568;2024-02-28T12:59:34;23.90;38.70
51476;DHT22;37554;50.362;7.568;2024-02-28T13:02:00;23.80;38.50
51476;DHT22;37554;50.362;7.568;2024-02-28T13:04:26;23.80;38.30
51476;DHT22;37554;50.362;7.568;2024-02-28T13:06:53;23.90;38.30
51476;DHT22;37554;50.362;7.568;2024-02-28T13:09:19;23.90;38.30
51476;DHT22;37554;50.362;7.568;2024-02-28T13:11:45;23.90;38.30
51476;DHT22;37554;50.362;7.568;2024-02-28T13:14:10;23.80;38.20
51476;DHT22;37554;50.362;7.568;2024-02-28T13:16:36;23.90;38.00
51476;DHT22;37554;50.362;7.568;2024-02-28T13:19:03;23.90;37.90
51476;DHT22;37554;50.362;7.568;2024-02-28T13:21:30;23.90;37.80
51476;DHT22;37554;50.362;7.568;2024-02-28T13:23:57;24.00;37.70
51476;DHT22;37554;50.362;7.568;2024-02-28T13:26:24;24.00;37.60
51476;DHT22;37554;50.362;7.568;2024-02-28T13:28:49;24.00;37.50
51476;DHT22;37554;50.362;7.568;2024-02-28T13:31:15;24.10;37.50
51476;DHT22;37554;50.362;7.568;2024-02-28T13:33:41;24.10;37.30
51476;DHT22;37554;50.362;7.568;2024-02-28T13:36:07;24.20;37.30
51476;DHT22;37554;50.362;7.568;2024-02-28T13:38:33;24.20;37.20
51476;DHT22;37554;50.362;7.568;2024-02-28T13:40:58;23.70;36.30
51476;DHT22;37554;50.362;7.568;2024-02-28T13:43:25;22.90;36.60
51476;DHT22;37554;50.362;7.568;2024-02-28T13:45:51;22.20;37.10
51476;DHT22;37554;50.362;7.568;2024-02-28T13:48:18;21.50;37.60
51476;DHT22;37554;50.362;7.568;2024-02-28T13:50:49;21.10;38.20
51476;DHT22;37554;50.362;7.568;2024-02-28T13:53:15;20.90;38.60
51476;DHT22;37554;50.362;7.568;2024-02-28T13:55:42;20.60;38.80
51476;DHT22;37554;50.362;7.568;2024-02-28T13:58:14;20.50;38.90
51476;DHT22;37554;50.362;7.568;2024-02-28T14:00:43;20.40;39.10
51476;DHT22;37554;50.362;7.568;2024-02-28T14:03:11;20.20;39.60
51476;DHT22;37554;50.362;7.568;2024-02-28T14:05:37;20.00;39.80
51476;DHT22;37554;50.362;7.568;2024-02-28T14:08:02;20.20;40.30
51476;DHT22;37554;50.362;7.568;2024-02-28T14:10:33;20.70;40.10
51476;DHT22;37554;50.362;7.568;2024-02-28T14:12:59;21.20;39.80
51476;DHT22;37554;50.362;7.568;2024-02-28T14:15:25;21.60;39.40
51476;DHT22;37554;50.362;7.568;2024-02-28T14:17:51;21.90;39.10
51476;DHT22;37554;50.362;7.568;2024-02-28T14:20:17;22.00;38.70
51476;DHT22;37554;50.362;7.568;2024-02-28T14:22:43;22.20;38.60
51476;DHT22;37554;50.362;7.568;2024-02-28T14:25:13;22.20;38.40
51476;DHT22;37554;50.362;7.568;2024-02-28T14:27:39;22.40;38.30
51476;DHT22;37554;50.362;7.568;2024-02-28T14:30:07;22.40;38.20
51476;DHT22;37554;50.362;7.568;2024-02-28T14:32:35;22.50;38.00
51476;DHT22;37554;50.362;7.568;2024-02-28T14:35:05;22.60;37.90
51476;DHT22;37554;50.362;7.568;2024-02-28T14:37:32;22.60;37.90
51476;DHT22;37554;50.362;7.568;2024-02-28T14:40:02;22.50;37.90
51476;DHT22;37554;50.362;7.568;2024-02-28T14:42:32;22.40;37.90
51476;DHT22;37554;50.362;7.568;2024-02-28T14:44:58;22.30;38.30
51476;DHT22;37554;50.362;7.568;2024-02-28T14:47:23;22.20;38.40
51476;DHT22;37554;50.362;7.568;2024-02-28T14:49:49;22.10;38.60
51476;DHT22;37554;50.362;7.568;2024-02-28T14:52:15;22.00;38.70
51476;DHT22;37554;50.362;7.568;2024-02-28T14:54:40;22.00;38.70
51476;DHT22;37554;50.362;7.568;2024-02-28T14:57:06;21.90;38.70
51476;DHT22;37554;50.362;7.568;2024-02-28T14:59:32;21.80;38.60
51476;DHT22;37554;50.362;7.568;2024-02-28T15:01:59;21.80;38.70
51476;DHT22;37554;50.362;7.568;2024-02-28T15:04:25;21.80;38.60
51476;DHT22;37554;50.362;7.568;2024-02-28T15:06:50;21.80;38.90
51476;DHT22;37554;50.362;7.568;2024-02-28T15:09:18;21.70;38.80
51476;DHT22;37554;50.362;7.568;2024-02-28T15:11:47;21.70;38.90
51476;DHT22;37554;50.362;7.568;2024-02-28T15:14:13;21.60;39.00
51476;DHT22;37554;50.362;7.568;2024-02-28T15:16:38;21.50;39.10
51476;DHT22;37554;50.362;7.568;2024-02-28T15:19:04;21.40;39.30
51476;DHT22;37554;50.362;7.568;2024-02-28T15:21:29;21.40;39.40
51476;DHT22;37554;50.362;7.568;2024-02-28T15:23:55;21.30;39.50